Romanovka, Russia
Current Conditions -  °F | °C
As of 12:00 PM on Thursday 27 Nov 2014 (Local Time) from UIAA Reporting Station
Clear Clear  
Wind Chill:   Ceiling: Unl
Heat Index:   Visibility: 6mi
Dew Point: -13°   Wind: 2mph
Humidity: 55%   Direction: NA
Pressure: 29.94"   Gusts: NA
Location:  53.2°N, 112.78°E
Report Text: UIAA 270400Z VRB01MPS 9999 SKC M18/M25 Q1014 NOSIG RMK QFE70229CLRD70
Loading
Personal Weather Stations






























Interactive Weather Map New forecast layout! Learn more

10-Day Weather Forecast

Advertisements
Track Severe Weather on mobile